Time;durP1;ratioP1;P1;durP2;ratioP2;P2;SDS_P1;SDS_P2;PMS_P1;PMS_P2;Temp;Humidity;BMP_temperature;BMP_pressure;BME280_temperature;BME280_humidity;BME280_pressure;Samples;Min_cycle;Max_cycle;Signal;HPM_P1;HPM_P2
2022/08/12 00:43:15;;;;;;;1.52;1.00;;;27.40;90.30;;;;;;5092502;28;20088;-52
2022/08/12 00:48:28;;;;;;;1.25;0.90;;;27.30;90.40;;;;;;5092603;28;20088;-52
2022/08/12 00:50:56;;;;;;;1.95;0.98;;;27.50;55.40;;;;;;5092251;28;20462;-49
2022/08/12 00:53:23;;;;;;;1.92;1.08;;;;;;;;;;5092239;28;20024;-50
2022/08/12 00:55:50;;;;;;;1.40;1.17;;;27.70;90.30;;;;;;5091983;28;20498;-49
2022/08/12 00:58:21;;;;;;;1.63;0.90;;;27.50;55.40;;;;;;5092124;28;20029;-49
2022/08/12 01:00:48;;;;;;;1.27;0.90;;;27.80;90.30;;;;;;5092200;28;20085;-51
2022/08/12 01:03:18;;;;;;;1.13;0.88;;;27.50;55.40;;;;;;5092139;28;20389;-50
2022/08/12 01:11:27;;;;;;;1.77;1.10;;;27.50;55.50;;;;;;5092344;28;20497;-52
2022/08/12 01:13:53;;;;;;;1.20;0.85;;;;;;;;;;5092033;28;20028;-51
2022/08/12 01:16:23;;;;;;;0.70;0.70;;;;;;;;;;5091853;28;20045;-52
2022/08/12 01:18:51;;;;;;;1.77;1.27;;;27.80;90.60;;;;;;5092104;28;20028;-51
2022/08/12 01:21:28;;;;;;;1.27;1.13;;;27.60;90.50;;;;;;5091994;28;20028;-51
2022/08/12 01:24:27;;;;;;;1.63;1.00;;;27.70;55.80;;;;;;5091941;28;20065;-52
2022/08/12 01:26:54;;;;;;;0.80;0.70;;;27.80;90.60;;;;;;5091874;28;20028;-49
2022/08/12 01:29:26;;;;;;;0.88;0.88;;;27.50;55.70;;;;;;5091904;28;20043;-52
2022/08/12 01:31:55;;;;;;;0.93;0.90;;;27.40;55.50;;;;;;5092111;28;20032;-50
2022/08/12 01:34:27;;;;;;;1.67;1.30;;;27.50;55.50;;;;;;5091806;28;20069;-51
2022/08/12 01:36:56;;;;;;;0.98;0.93;;;27.50;55.70;;;;;;5091878;28;20032;-50
2022/08/12 01:39:28;;;;;;;0.97;0.90;;;27.50;55.40;;;;;;5091836;28;20539;-50
2022/08/12 01:41:58;;;;;;;1.02;0.70;;;27.40;55.50;;;;;;5093045;28;20100;-51
2022/08/12 01:44:26;;;;;;;1.40;1.15;;;27.50;55.50;;;;;;5095594;28;20020;-51
2022/08/12 01:46:52;;;;;;;1.25;1.15;;;;;;;;;;5095422;28;20031;-50
2022/08/12 01:49:45;;;;;;;0.80;0.70;;;29.40;52.30;;;;;;5095403;28;20028;-51
2022/08/12 01:52:27;;;;;;;2.78;1.10;;;27.40;55.40;;;;;;5095772;28;20024;-50
2022/08/12 01:54:53;;;;;;;1.05;1.00;;;27.50;90.40;;;;;;5095112;28;20119;-50
2022/08/12 01:57:23;;;;;;;1.75;1.00;;;27.60;90.40;;;;;;5095378;28;20048;-50
2022/08/12 01:59:58;;;;;;;;;;;27.40;55.80;;;;;;5095728;28;20031;-51
2022/08/12 02:02:52;;;;;;;1.50;1.10;;;27.20;55.80;;;;;;5095490;28;19904;-50
2022/08/12 02:11:27;;;;;;;2.30;1.02;;;27.80;75.70;;;;;;5095356;28;20116;-49
2022/08/12 02:14:34;;;;;;;1.17;1.05;;;27.40;50.90;;;;;;5095163;28;20432;-50
2022/08/12 02:17:38;;;;;;;1.25;0.90;;;27.60;78.60;;;;;;5094982;28;20068;-50
2022/08/12 02:20:03;;;;;;;2.17;1.10;;;27.50;90.40;;;;;;5094908;28;20107;-51
2022/08/12 02:22:40;;;;;;;1.30;1.00;;;27.10;90.30;;;;;;5094823;28;20103;-51
2022/08/12 02:25:10;;;;;;;0.95;0.80;;;27.70;90.60;;;;;;5095047;28;20081;-52
2022/08/12 02:27:44;;;;;;;;;;;27.30;55.20;;;;;;5095285;28;20485;-53
2022/08/12 02:30:13;;;;;;;1.45;1.20;;;27.40;57.10;;;;;;5094703;28;19951;-50
2022/08/12 02:32:41;;;;;;;1.63;1.20;;;27.30;55.40;;;;;;5094750;28;20488;-51
2022/08/12 02:35:10;;;;;;;1.27;1.00;;;27.50;55.40;;;;;;5094559;28;20398;-52
2022/08/12 02:37:38;;;;;;;1.30;1.10;;;27.50;55.70;;;;;;5094548;28;20028;-50
2022/08/12 02:40:06;;;;;;;1.48;1.00;;;27.20;55.40;;;;;;5094444;28;20024;-50
2022/08/12 02:42:33;;;;;;;3.80;1.17;;;27.30;55.50;;;;;;5094497;28;20028;-51
2022/08/12 02:45:05;;;;;;;1.20;0.95;;;27.30;55.50;;;;;;5094390;28;20016;-50
2022/08/12 02:47:38;;;;;;;1.30;1.08;;;27.70;90.50;;;;;;5094395;28;20547;-48
2022/08/12 02:50:04;;;;;;;1.33;1.08;;;;;;;;;;5094441;28;20031;-52
2022/08/12 02:52:31;;;;;;;1.73;1.02;;;27.30;52.70;;;;;;5094208;28;20118;-49
2022/08/12 02:55:13;;;;;;;1.45;1.05;;;27.30;55.50;;;;;;5094017;28;20052;-53
2022/08/12 02:57:40;;;;;;;2.33;1.25;;;27.20;90.40;;;;;;5094236;28;20386;-50
2022/08/12 03:00:07;;;;;;;1.67;1.33;;;27.90;61.80;;;;;;5094352;28;20024;-50
2022/08/12 03:02:37;;;;;;;1.88;1.05;;;27.30;55.50;;;;;;5094333;28;20077;-50
2022/08/12 03:05:03;;;;;;;0.98;0.90;;;26.80;90.20;;;;;;5094018;28;20103;-50
2022/08/12 03:07:35;;;;;;;0.93;0.93;;;27.30;55.60;;;;;;5094180;28;20035;-50
2022/08/12 03:10:08;;;;;;;1.10;1.00;;;27.50;90.50;;;;;;5094008;28;20023;-51
2022/08/12 03:12:39;;;;;;;1.15;1.05;;;27.30;90.40;;;;;;5093863;28;20393;-50
2022/08/12 03:15:10;;;;;;;1.20;1.10;;;27.40;90.50;;;;;;5093760;28;20497;-51
2022/08/12 03:17:57;;;;;;;1.77;1.08;;;27.00;73.80;;;;;;5093738;28;20032;-50
2022/08/12 03:20:23;;;;;;;2.05;1.10;;;27.50;90.50;;;;;;5094033;28;20024;-50
2022/08/12 03:22:50;;;;;;;1.60;1.10;;;27.60;85.70;;;;;;5094008;28;20166;-50
2022/08/12 03:25:26;;;;;;;1.77;1.20;;;27.60;53.70;;;;;;5093560;28;20060;-49
2022/08/12 03:27:57;;;;;;;1.33;1.00;;;27.20;55.70;;;;;;5093693;28;20555;-50
2022/08/12 03:30:31;;;;;;;2.38;1.38;;;27.40;60.50;;;;;;5093576;28;20611;-50
2022/08/12 03:32:59;;;;;;;1.88;0.80;;;27.20;55.60;;;;;;5093724;28;20374;-50
2022/08/12 03:35:29;;;;;;;1.17;0.90;;;26.80;90.20;;;;;;5093603;28;20043;-51
2022/08/12 03:38:00;;;;;;;1.40;1.08;;;27.00;90.50;;;;;;5093729;28;20095;-49
2022/08/12 04:00:23;;;;;;;1.10;1.00;;;27.20;55.70;;;;;;5093041;28;20055;-52
2022/08/12 04:02:58;;;;;;;1.65;1.17;;;;;;;;;;5092927;28;20024;-51
2022/08/12 04:05:25;;;;;;;2.35;1.17;;;27.20;55.70;;;;;;5092692;28;20036;-50
2022/08/12 04:07:51;;;;;;;1.88;1.38;;;27.00;90.50;;;;;;5093125;28;20047;-50
2022/08/12 04:10:18;;;;;;;2.10;1.15;;;27.20;54.80;;;;;;5092810;28;20031;-50
2022/08/12 04:15:30;;;;;;;1.45;1.13;;;27.20;55.70;;;;;;5093212;28;20166;-49
2022/08/12 04:17:58;;;;;;;1.20;1.10;;;27.10;54.40;;;;;;5092712;28;20138;-50
2022/08/12 04:20:23;;;;;;;1.88;1.05;;;26.80;90.30;;;;;;5092574;28;20039;-50
2022/08/12 04:22:50;;;;;;;1.80;1.17;;;;;;;;;;5092687;28;20020;-51
2022/08/12 04:25:16;;;;;;;0.90;0.90;;;;;;;;;;5092598;28;20107;-50
2022/08/12 04:27:44;;;;;;;2.55;1.23;;;27.10;55.60;;;;;;5092453;28;20035;-50
2022/08/12 04:30:10;;;;;;;1.27;1.17;;;26.80;79.30;;;;;;5092750;28;20378;-49
2022/08/12 04:32:36;;;;;;;0.98;0.98;;;27.10;53.10;;;;;;5092387;28;20557;-49
2022/08/12 04:35:02;;;;;;;1.80;1.27;;;;;;;;;;5092289;28;20119;-50
2022/08/12 04:37:28;;;;;;;1.35;1.25;;;;;;;;;;5092570;28;20035;-50
2022/08/12 04:39:55;;;;;;;1.45;1.00;;;26.80;73.40;;;;;;5092628;28;20103;-52
2022/08/12 04:42:24;;;;;;;1.30;1.20;;;26.70;90.30;;;;;;5092330;28;20032;-53
2022/08/12 04:44:50;;;;;;;2.70;0.95;;;;;;;;;;5092224;28;20027;-53
2022/08/12 04:47:16;;;;;;;1.73;1.15;;;27.60;90.70;;;;;;5092245;28;20107;-53
2022/08/12 04:49:44;;;;;;;1.30;1.25;;;27.10;55.60;;;;;;5092152;28;20024;-50
2022/08/12 04:52:10;;;;;;;1.30;1.10;;;27.10;90.50;;;;;;5092134;28;20206;-53
2022/08/12 04:54:37;;;;;;;2.63;1.30;;;;;;;;;;5092335;28;20073;-52
2022/08/12 04:57:04;;;;;;;1.15;1.05;;;;;;;;;;5092053;28;20043;-50
2022/08/12 04:59:31;;;;;;;1.88;1.08;;;;;;;;;;5092066;28;20032;-49
2022/08/12 05:01:57;;;;;;;2.25;1.45;;;;;;;;;;5092070;28;20103;-52
2022/08/12 05:04:26;;;;;;;1.08;1.00;;;26.80;59.10;;;;;;5091995;28;20059;-50
2022/08/12 05:06:52;;;;;;;1.55;1.45;;;;;;;;;;5092245;28;20049;-51
2022/08/12 05:09:18;;;;;;;1.75;1.27;;;;;;;;;;5091998;28;20286;-51
2022/08/12 05:11:46;;;;;;;1.88;1.30;;;27.10;55.70;;;;;;5092176;28;20375;-50
2022/08/12 05:14:12;;;;;;;1.38;1.27;;;;;;;;;;5091970;28;20032;-49
2022/08/12 05:16:38;;;;;;;1.02;1.02;;;;;;;;;;5092346;28;20036;-49
2022/08/12 05:19:05;;;;;;;1.15;1.10;;;26.70;60.20;;;;;;5096113;28;20024;-49
2022/08/12 05:21:31;;;;;;;1.20;1.10;;;;;;;;;;5096018;28;20024;-49
2022/08/12 05:23:57;;;;;;;1.10;1.10;;;;;;;;;;5095875;28;20085;-51
2022/08/12 05:26:23;;;;;;;1.35;1.25;;;;;;;;;;5096170;28;20069;-51
2022/08/12 05:28:52;;;;;;;1.20;1.20;;;26.70;90.50;;;;;;5095873;28;20028;-51
2022/08/12 05:31:19;;;;;;;2.00;1.63;;;;;;;;;;5095842;28;20024;-51
2022/08/12 05:33:46;;;;;;;2.00;1.35;;;27.10;90.60;;;;;;5095665;28;20034;-50
2022/08/12 05:36:13;;;;;;;2.15;1.45;;;27.10;55.90;;;;;;5095663;28;20046;-50
2022/08/12 05:38:55;;;;;;;3.20;1.38;;;27.40;90.70;;;;;;5095676;28;20105;-51
2022/08/12 05:41:22;;;;;;;2.65;1.50;;;27.20;54.50;;;;;;5095671;28;20032;-51
2022/08/12 05:43:53;;;;;;;7.20;1.38;;;27.30;90.80;;;;;;5095594;28;20024;-50
2022/08/12 05:46:20;;;;;;;2.05;1.50;;;27.40;90.70;;;;;;5095594;28;20024;-51
2022/08/12 05:48:48;;;;;;;2.42;1.58;;;27.20;55.90;;;;;;5095392;28;20036;-51
2022/08/12 05:51:14;;;;;;;1.30;1.20;;;;;;;;;;5095481;28;20063;-51
2022/08/12 05:53:40;;;;;;;1.60;1.20;;;;;;;;;;5095312;28;20032;-51
2022/08/12 05:56:17;;;;;;;1.38;1.30;;;27.20;56.00;;;;;;5095119;28;20052;-52
2022/08/12 05:58:43;;;;;;;4.03;1.38;;;;;;;;;;5095316;28;20027;-54
2022/08/12 06:01:08;;;;;;;1.50;1.40;;;27.40;90.90;;;;;;5095747;28;20024;-54
2022/08/12 06:03:34;;;;;;;1.30;1.20;;;;;;;;;;5095502;28;20046;-54
2022/08/12 06:06:00;;;;;;;7.82;1.60;;;;;;;;;;5095233;28;20055;-53
2022/08/12 06:08:26;;;;;;;8.07;1.92;;;;;;;;;;5095094;28;20055;-54
2022/08/12 06:10:52;;;;;;;1.35;1.25;;;;;;;;;;5076918;28;20500;-54
2022/08/12 06:13:19;;;;;;;1.70;1.30;;;;;;;;;;5095229;28;20020;-55
2022/08/12 06:15:44;;;;;;;3.75;1.60;;;26.90;91.10;;;;;;5095091;28;20074;-51
2022/08/12 06:18:11;;;;;;;13.20;1.60;;;27.00;56.80;;;;;;5095104;28;20048;-54
2022/08/12 06:20:37;;;;;;;2.65;1.50;;;;;;;;;;5095116;28;20028;-54
2022/08/12 06:23:03;;;;;;;6.90;1.60;;;27.30;91.20;;;;;;5095256;28;20027;-52
2022/08/12 06:25:29;;;;;;;3.40;1.27;;;27.50;91.20;;;;;;5094991;28;20028;-52
2022/08/12 06:27:57;;;;;;;10.23;1.52;;;27.00;57.00;;;;;;5094410;28;20028;-51
2022/08/12 06:30:24;;;;;;;6.13;1.13;;;;;;;;;;5094971;28;20020;-52
2022/08/12 06:32:51;;;;;;;2.45;1.40;;;;;;;;;;5094919;28;20646;-53
2022/08/12 06:35:17;;;;;;;1.33;1.23;;;27.00;54.20;;;;;;5094568;28;20044;-49
2022/08/12 06:37:47;;;;;;;3.08;1.40;;;27.40;91.10;;;;;;5094764;28;20022;-49
2022/08/12 06:40:13;;;;;;;2.03;1.25;;;27.20;91.10;;;;;;5076561;28;20055;-50
2022/08/12 06:42:53;;;;;;;1.27;1.17;;;27.00;56.80;;;;;;5094674;28;20383;-51
2022/08/12 06:45:19;;;;;;;2.13;1.30;;;;;;;;;;5094633;28;20097;-54
2022/08/12 06:47:46;;;;;;;1.58;1.40;;;27.10;55.60;;;;;;5094501;28;20130;-52
2022/08/12 06:50:15;;;;;;;1.75;1.60;;;26.80;90.70;;;;;;5094612;28;20515;-51
2022/08/12 06:52:42;;;;;;;2.92;1.35;;;27.00;56.50;;;;;;5094466;28;20050;-50
2022/08/12 06:55:14;;;;;;;3.15;1.75;;;27.20;54.90;;;;;;5094090;28;20043;-52
2022/08/12 06:57:55;;;;;;;3.33;1.52;;;26.90;70.90;;;;;;5094399;28;20028;-52
2022/08/12 07:00:25;;;;;;;3.80;1.85;;;27.20;56.60;;;;;;5094351;28;20024;-53
2022/08/12 07:02:56;;;;;;;;;;;27.20;52.60;;;;;;5094723;28;20028;-52
2022/08/12 07:05:25;;;;;;;4.68;1.65;;;27.50;52.20;;;;;;5094118;28;19984;-52
2022/08/12 07:07:57;;;;;;;3.95;1.42;;;27.20;91.00;;;;;;5094458;28;20020;-54
2022/08/12 07:10:22;;;;;;;3.47;1.50;;;27.60;88.20;;;;;;5094435;28;20035;-52
2022/08/12 07:12:53;;;;;;;2.33;1.13;;;;;;;;;;5094286;28;20024;-52
2022/08/12 07:15:24;;;;;;;2.13;1.55;;;27.20;52.10;;;;;;5093993;28;20036;-57
2022/08/12 07:17:59;;;;;;;4.28;1.63;;;27.70;91.20;;;;;;5094004;28;20028;-56
2022/08/12 07:20:29;;;;;;;4.43;1.70;;;27.30;56.70;;;;;;5094221;28;20038;-55
2022/08/12 07:22:56;;;;;;;2.08;1.55;;;26.80;67.70;;;;;;5093810;28;20030;-54
2022/08/12 07:25:31;;;;;;;4.20;1.77;;;;;;;;;;5093786;28;20051;-54
2022/08/12 07:28:00;;;;;;;5.50;1.40;;;27.30;56.20;;;;;;5093829;28;20024;-54
2022/08/12 07:30:26;;;;;;;3.08;1.50;;;;;;;;;;5093684;28;20025;-55
2022/08/12 07:32:53;;;;;;;1.50;1.40;;;;;;;;;;5093592;28;20035;-54
2022/08/12 07:35:19;;;;;;;2.53;1.10;;;27.30;91.00;;;;;;5093447;28;20040;-53
2022/08/12 07:37:46;;;;;;;1.70;1.60;;;27.00;91.00;;;;;;5093516;28;20025;-52
2022/08/12 07:40:12;;;;;;;1.65;1.55;;;;;;;;;;5092576;28;20028;-54
2022/08/12 07:42:39;;;;;;;3.78;1.40;;;27.30;55.10;;;;;;5093495;28;20066;-53
2022/08/12 07:45:06;;;;;;;1.98;1.70;;;27.50;91.30;;;;;;5093494;28;20462;-53
2022/08/12 07:47:33;;;;;;;2.40;1.70;;;;;;;;;;5093381;28;20028;-54
2022/08/12 07:50:00;;;;;;;3.58;1.55;;;;;;;;;;5093344;28;20020;-54
2022/08/12 07:52:26;;;;;;;2.95;1.70;;;;;;;;;;5093251;28;20028;-54
2022/08/12 07:54:52;;;;;;;2.70;1.67;;;;;;;;;;5093182;28;20032;-54
2022/08/12 07:57:18;;;;;;;2.03;1.83;;;;;;;;;;5093322;28;20432;-55
2022/08/12 07:59:44;;;;;;;2.15;1.65;;;;;;;;;;5093058;28;20024;-54
2022/08/12 08:02:10;;;;;;;3.15;1.95;;;;;;;;;;5093206;28;20127;-52
2022/08/12 08:07:21;;;;;;;2.92;1.90;;;;;;;;;;5093035;28;20110;-53
2022/08/12 08:09:47;;;;;;;3.05;1.98;;;27.40;91.00;;;;;;5093041;28;20456;-54
2022/08/12 08:14:57;;;;;;;18.17;2.38;;;27.20;91.10;;;;;;5092963;28;20039;-50
2022/08/12 08:17:26;;;;;;;5.15;1.90;;;27.80;91.30;;;;;;5092817;28;20032;-54
2022/08/12 08:19:53;;;;;;;2.40;2.20;;;27.70;78.20;;;;;;5092843;28;20032;-54
2022/08/12 08:22:19;;;;;;;5.38;2.08;;;;;;;;;;5092895;28;20363;-54
2022/08/12 08:24:45;;;;;;;3.35;2.13;;;;;;;;;;5092771;28;20107;-55
2022/08/12 08:27:11;;;;;;;2.65;2.03;;;27.60;91.00;;;;;;5092714;28;20020;-53
2022/08/12 08:29:37;;;;;;;2.97;2.10;;;;;;;;;;5092547;28;20393;-55
2022/08/12 08:32:08;;;;;;;4.40;2.35;;;27.90;91.30;;;;;;5092502;28;20067;-54
2022/08/12 08:34:35;;;;;;;2.17;1.88;;;;;;;;;;5092526;28;20028;-51
2022/08/12 08:37:01;;;;;;;7.13;2.53;;;;;;;;;;5092440;28;20031;-53
2022/08/12 08:39:27;;;;;;;3.25;2.20;;;;;;;;;;5092410;28;20036;-55
2022/08/12 08:44:41;;;;;;;2.95;2.30;;;;;;;;;;5092744;28;20108;-55
2022/08/12 08:47:09;;;;;;;3.53;2.50;;;27.80;91.00;;;;;;5092463;28;20034;-54
2022/08/12 08:49:35;;;;;;;3.67;2.42;;;;;;;;;;5092352;28;20024;-52
2022/08/12 08:52:02;;;;;;;4.60;2.55;;;27.40;90.70;;;;;;5092172;28;20020;-53
2022/08/12 08:54:32;;;;;;;6.05;3.00;;;;;;;;;;5092257;28;20020;-53
2022/08/12 08:57:00;;;;;;;5.95;3.63;;;27.80;90.70;;;;;;5092159;28;20060;-52
2022/08/12 08:59:27;;;;;;;5.93;3.15;;;27.40;90.50;;;;;;5092422;28;20043;-53
2022/08/12 09:01:53;;;;;;;4.50;2.90;;;27.80;90.50;;;;;;5092569;28;20165;-55
2022/08/12 09:04:25;;;;;;;4.68;3.05;;;;;;;;;;5092488;28;20478;-55
2022/08/12 09:06:59;;;;;;;4.78;3.35;;;27.70;90.30;;;;;;5092241;28;20024;-56
2022/08/12 09:09:25;;;;;;;5.72;3.00;;;28.20;90.50;;;;;;5092333;28;20036;-56
2022/08/12 09:14:35;;;;;;;5.10;3.03;;;;;;;;;;5092509;28;20089;-54
2022/08/12 09:17:01;;;;;;;4.13;2.88;;;27.70;90.20;;;;;;5092418;28;20113;-56
2022/08/12 09:19:27;;;;;;;5.30;3.03;;;;;;;;;;5092225;28;20016;-54
2022/08/12 09:21:52;;;;;;;6.15;3.30;;;28.30;90.20;;;;;;5092303;28;20039;-55
2022/08/12 09:24:18;;;;;;;4.93;3.28;;;;;;;;;;5092097;28;20414;-55
2022/08/12 09:26:46;;;;;;;10.35;3.20;;;28.10;54.80;;;;;;5092007;28;20039;-55
2022/08/12 09:29:13;;;;;;;4.45;3.20;;;28.40;90.10;;;;;;5092005;28;20030;-55
2022/08/12 09:31:40;;;;;;;6.03;3.47;;;28.30;90.10;;;;;;5091987;28;20032;-54
2022/08/12 09:34:08;;;;;;;4.85;3.30;;;;;;;;;;5091975;28;20032;-55
2022/08/12 09:36:37;;;;;;;4.15;2.70;;;;;;;;;;5091901;28;20428;-55
2022/08/12 09:39:06;;;;;;;5.00;3.30;;;28.30;53.90;;;;;;5091853;28;20031;-56
2022/08/12 09:41:43;;;;;;;4.78;3.00;;;28.60;90.00;;;;;;5091885;28;20024;-56
2022/08/12 09:46:56;;;;;;;5.55;3.10;;;28.30;52.40;;;;;;5092210;28;20036;-54
2022/08/12 09:49:23;;;;;;;4.88;3.53;;;;;;;;;;5091752;28;20043;-55
2022/08/12 09:51:49;;;;;;;6.35;3.80;;;28.30;89.10;;;;;;5091859;28;20355;-57
2022/08/12 09:54:16;;;;;;;3.22;2.75;;;;;;;;;;5091871;28;20031;-57
2022/08/12 09:56:43;;;;;;;3.60;3.17;;;28.20;88.90;;;;;;5091521;28;20052;-54
2022/08/12 09:59:09;;;;;;;3.60;3.05;;;28.30;88.90;;;;;;5091832;28;20023;-55
2022/08/12 10:01:38;;;;;;;4.85;3.30;;;28.60;89.20;;;;;;5091907;28;20027;-56
2022/08/12 10:04:09;;;;;;;3.90;3.10;;;28.60;52.10;;;;;;5094509;28;20030;-54
2022/08/12 10:06:35;;;;;;;4.13;3.03;;;;;;;;;;5095350;28;20126;-56
2022/08/12 10:09:02;;;;;;;4.50;3.10;;;28.30;88.20;;;;;;5095543;28;20024;-57
2022/08/12 10:14:12;;;;;;;3.60;2.65;;;28.50;88.30;;;;;;5095600;28;20053;-56
2022/08/12 10:16:43;;;;;;;3.80;2.92;;;;;;;;;;5095112;28;20040;-56
2022/08/12 10:19:09;;;;;;;5.88;2.67;;;;;;;;;;5095089;28;20112;-56
2022/08/12 10:21:37;;;;;;;4.85;2.70;;;28.90;52.90;;;;;;5095121;28;20024;-56
2022/08/12 10:24:30;;;;;;;4.40;3.05;;;28.80;52.50;;;;;;5076969;28;20052;-57
2022/08/12 10:29:43;;;;;;;6.45;3.25;;;29.30;87.80;;;;;;5095315;28;20123;-56
2022/08/12 10:32:11;;;;;;;5.22;3.45;;;28.90;52.40;;;;;;5094967;28;20028;-57
2022/08/12 10:34:38;;;;;;;2.95;2.50;;;29.20;87.70;;;;;;5094928;28;20028;-56
2022/08/12 10:37:04;;;;;;;6.10;3.00;;;29.20;54.20;;;;;;5094724;28;20036;-56
2022/08/12 10:39:38;;;;;;;4.13;2.70;;;29.40;58.30;;;;;;5095026;28;20382;-56
2022/08/12 10:44:59;;;;;;;3.55;2.38;;;29.20;87.40;;;;;;5094957;28;20161;-57
2022/08/12 10:47:32;;;;;;;5.30;2.95;;;29.50;87.40;;;;;;5094888;28;20024;-56
2022/08/12 10:50:03;;;;;;;5.47;2.85;;;;;;;;;;5094624;28;20080;-55
2022/08/12 10:52:29;;;;;;;3.72;2.70;;;29.10;86.80;;;;;;5094779;28;20024;-52
2022/08/12 10:54:56;;;;;;;2.90;2.40;;;28.80;86.70;;;;;;5093973;28;20035;-55
2022/08/12 10:57:25;;;;;;;4.07;2.78;;;28.90;86.80;;;;;;5094668;28;20020;-55
2022/08/12 10:59:55;;;;;;;3.58;2.50;;;29.30;86.80;;;;;;5094408;28;20497;-56
2022/08/12 11:02:23;;;;;;;;;;;29.10;51.90;;;;;;5094706;28;20028;-56
2022/08/12 11:04:49;;;;;;;4.25;2.78;;;29.40;86.90;;;;;;5094365;28;20273;-55
2022/08/12 11:07:16;;;;;;;6.35;2.92;;;29.40;86.80;;;;;;5094210;28;20103;-56
2022/08/12 11:09:42;;;;;;;9.70;2.78;;;29.20;86.50;;;;;;5094182;28;20107;-54
2022/08/12 11:12:09;;;;;;;6.40;2.38;;;;;;;;;;5094325;28;20028;-56
2022/08/12 11:14:37;;;;;;;6.55;2.60;;;29.30;51.40;;;;;;5094031;28;20039;-57
2022/08/12 11:17:07;;;;;;;4.82;2.50;;;29.40;86.50;;;;;;5094035;28;20040;-54
2022/08/12 11:19:36;;;;;;;8.23;3.35;;;29.10;74.00;;;;;;5093824;28;20109;-56
2022/08/12 11:22:03;;;;;;;5.18;2.70;;;29.30;51.10;;;;;;5093965;28;20024;-55
2022/08/12 11:24:29;;;;;;;4.57;2.38;;;;;;;;;;5093656;28;20024;-54
2022/08/12 11:26:55;;;;;;;4.55;2.45;;;29.00;85.70;;;;;;5093697;28;20028;-56
2022/08/12 11:29:23;;;;;;;3.55;2.17;;;29.50;85.40;;;;;;5093675;28;20030;-56
2022/08/12 11:31:49;;;;;;;5.57;2.13;;;29.20;85.40;;;;;;5093682;28;20153;-56
2022/08/12 11:34:18;;;;;;;5.57;2.03;;;;;;;;;;5093623;28;20066;-54
2022/08/12 11:36:59;;;;;;;3.70;2.67;;;29.30;85.40;;;;;;5093570;28;20119;-56
2022/08/12 11:39:25;;;;;;;3.15;2.22;;;29.20;85.00;;;;;;5093475;28;20092;-56
2022/08/12 11:41:51;;;;;;;4.30;2.40;;;29.70;84.80;;;;;;5093523;28;20024;-56
2022/08/12 11:44:17;;;;;;;3.40;2.38;;;;;;;;;;5093334;28;20478;-54
2022/08/12 11:46:43;;;;;;;2.45;2.00;;;29.20;84.60;;;;;;5093294;28;20487;-53
2022/08/12 11:49:10;;;;;;;7.00;2.45;;;29.60;71.70;;;;;;5093335;28;20099;-56
2022/08/12 11:51:36;;;;;;;3.13;2.03;;;;;;;;;;5093567;28;20465;-55
2022/08/12 11:54:03;;;;;;;3.20;2.22;;;29.50;49.30;;;;;;5093215;28;20042;-55
2022/08/12 11:56:29;;;;;;;6.85;2.10;;;;;;;;;;5093031;28;20082;-54
2022/08/12 11:58:55;;;;;;;5.47;2.50;;;;;;;;;;5093203;28;20032;-56
2022/08/12 12:01:21;;;;;;;3.03;2.30;;;;;;;;;;5093147;28;20053;-56
2022/08/12 12:03:47;;;;;;;3.88;2.40;;;;;;;;;;5093163;28;20027;-56
2022/08/12 12:06:14;;;;;;;2.78;1.90;;;29.40;46.80;;;;;;5093038;28;20055;-55
2022/08/12 12:08:40;;;;;;;2.65;2.33;;;;;;;;;;5092975;28;20024;-55
2022/08/12 12:11:06;;;;;;;2.97;2.05;;;;;;;;;;5093010;28;20119;-55
2022/08/12 12:13:32;;;;;;;3.22;2.15;;;;;;;;;;5093005;28;20024;-54
2022/08/12 12:15:58;;;;;;;2.90;1.88;;;;;;;;;;5092849;28;20036;-56
2022/08/12 12:18:27;;;;;;;4.28;2.15;;;29.60;48.50;;;;;;5092853;28;20103;-56
2022/08/12 12:20:56;;;;;;;2.25;2.05;;;29.40;65.80;;;;;;5092908;28;20034;-55
2022/08/12 12:23:22;;;;;;;2.45;1.90;;;;;;;;;;5092868;28;20032;-55
2022/08/12 12:25:48;;;;;;;2.35;2.00;;;;;;;;;;5092349;28;20038;-53
2022/08/12 12:28:14;;;;;;;2.20;2.00;;;;;;;;;;5092825;28;20043;-55
2022/08/12 12:30:40;;;;;;;2.88;2.10;;;;;;;;;;5092671;28;20064;-53
2022/08/12 12:33:08;;;;;;;3.15;2.28;;;29.60;48.00;;;;;;5092605;28;20058;-53
2022/08/12 12:35:34;;;;;;;3.15;2.10;;;29.80;83.50;;;;;;5092521;28;20071;-54
2022/08/12 12:38:02;;;;;;;2.03;1.83;;;29.60;48.10;;;;;;5092594;28;20053;-54
2022/08/12 12:40:30;;;;;;;3.00;1.98;;;29.60;48.10;;;;;;5092639;28;20110;-52
2022/08/12 12:42:56;;;;;;;4.30;1.73;;;;;;;;;;5092445;28;20024;-53
2022/08/12 12:45:22;;;;;;;2.97;2.00;;;;;;;;;;5092475;28;20038;-53
2022/08/12 12:48:05;;;;;;;3.28;2.00;;;29.60;44.30;;;;;;5092477;28;20039;-53
2022/08/12 12:50:34;;;;;;;3.13;1.60;;;29.20;82.70;;;;;;5092402;28;20024;-54
2022/08/12 12:53:00;;;;;;;2.55;1.90;;;;;;;;;;5092611;28;20031;-55
2022/08/12 12:55:27;;;;;;;2.00;1.80;;;29.60;47.70;;;;;;5092016;28;20040;-55
2022/08/12 12:57:53;;;;;;;3.40;1.95;;;;;;;;;;5092285;28;20039;-52
2022/08/12 13:00:20;;;;;;;3.20;1.77;;;29.60;47.60;;;;;;5092372;28;20032;-52
2022/08/12 13:02:56;;;;;;;3.35;2.42;;;29.50;82.60;;;;;;5092113;28;20031;-55
2022/08/12 13:05:24;;;;;;;2.00;1.80;;;;;;;;;;5092142;28;20036;-52
2022/08/12 13:07:50;;;;;;;2.20;1.95;;;;;;;;;;5092124;28;20027;-52
2022/08/12 13:10:16;;;;;;;2.35;1.90;;;;;;;;;;5092012;28;20107;-54
2022/08/12 13:12:41;;;;;;;2.95;1.92;;;29.20;82.20;;;;;;5092041;28;20205;-55
2022/08/12 13:15:11;;;;;;;2.67;1.98;;;29.70;46.60;;;;;;5091974;28;20024;-53
2022/08/12 13:17:37;;;;;;;;;;;29.50;46.50;;;;;;5092777;28;20040;-55
2022/08/12 13:20:05;;;;;;;3.05;1.70;;;29.50;75.50;;;;;;5092046;28;19951;-54
2022/08/12 13:22:31;;;;;;;2.45;1.92;;;29.40;57.30;;;;;;5073885;28;20058;-54
2022/08/12 13:24:58;;;;;;;2.10;1.90;;;;;;;;;;5092127;28;20381;-53
2022/08/12 13:27:32;;;;;;;1.70;1.60;;;29.60;43.50;;;;;;5092058;28;20113;-54
2022/08/12 13:29:58;;;;;;;2.10;1.67;;;;;;;;;;5092005;28;20028;-54
2022/08/12 13:32:28;;;;;;;1.90;1.77;;;29.30;82.10;;;;;;5091972;28;20063;-53
2022/08/12 13:34:55;;;;;;;3.88;2.10;;;29.60;47.20;;;;;;5091959;28;20032;-55
2022/08/12 13:37:23;;;;;;;7.55;2.10;;;29.30;82.10;;;;;;5092017;28;20036;-55
2022/08/12 13:39:50;;;;;;;2.05;1.80;;;29.30;82.40;;;;;;5095821;28;20103;-54
2022/08/12 13:42:16;;;;;;;4.78;1.88;;;;;;;;;;5095718;28;20367;-53
2022/08/12 13:44:43;;;;;;;2.63;1.95;;;;;;;;;;5095683;28;20526;-55
2022/08/12 13:47:09;;;;;;;2.95;1.58;;;;;;;;;;5095744;28;20066;-51
2022/08/12 13:49:34;;;;;;;1.65;1.55;;;29.30;82.00;;;;;;5095862;28;20381;-51
2022/08/12 13:52:00;;;;;;;2.75;1.75;;;;;;;;;;5095602;28;20024;-52
2022/08/12 13:54:26;;;;;;;2.33;1.83;;;;;;;;;;5095549;28;20047;-54
2022/08/12 13:56:52;;;;;;;4.60;1.77;;;;;;;;;;5095171;28;20502;-51
2022/08/12 13:59:20;;;;;;;4.80;1.85;;;;;;;;;;5095422;28;20452;-53
2022/08/12 14:01:52;;;;;;;1.77;1.63;;;29.40;82.50;;;;;;5095435;28;20024;-54
2022/08/12 14:04:17;;;;;;;2.67;2.08;;;29.70;82.90;;;;;;5095503;28;20031;-52
2022/08/12 14:06:43;;;;;;;3.03;1.70;;;29.10;82.30;;;;;;5095312;28;20024;-52
2022/08/12 14:09:09;;;;;;;2.00;1.45;;;;;;;;;;5095233;28;20052;-55
2022/08/12 14:11:35;;;;;;;1.70;1.50;;;;;;;;;;5094801;28;20043;-55
2022/08/12 14:14:01;;;;;;;2.42;1.80;;;;;;;;;;5095478;28;20375;-56
2022/08/12 14:16:27;;;;;;;2.03;1.80;;;29.40;82.30;;;;;;5095060;28;20036;-56
2022/08/12 14:18:53;;;;;;;1.75;1.60;;;;;;;;;;5094979;28;20042;-56
2022/08/12 14:21:19;;;;;;;2.42;1.70;;;29.40;82.40;;;;;;5094962;28;20064;-55
2022/08/12 14:23:49;;;;;;;2.75;1.60;;;29.40;45.30;;;;;;5094959;28;20055;-56
2022/08/12 14:26:23;;;;;;;3.17;1.85;;;29.30;82.10;;;;;;5094942;28;20020;-56
2022/08/12 14:28:52;;;;;;;1.70;1.60;;;29.10;82.00;;;;;;5094896;28;20051;-55
2022/08/12 14:31:20;;;;;;;1.65;1.50;;;;;;;;;;5094939;28;20020;-54
2022/08/12 14:33:47;;;;;;;2.83;2.10;;;29.00;82.10;;;;;;5094700;28;20028;-55
2022/08/12 14:36:20;;;;;;;2.10;1.90;;;29.30;81.90;;;;;;5094647;28;20044;-56
2022/08/12 14:38:46;;;;;;;2.55;2.00;;;29.10;82.20;;;;;;5094684;28;20021;-54
2022/08/12 14:41:17;;;;;;;4.45;1.83;;;29.50;52.10;;;;;;5094904;28;20525;-55
2022/08/12 14:43:46;;;;;;;4.47;1.48;;;29.60;82.10;;;;;;5094656;28;20076;-56
2022/08/12 14:46:14;;;;;;;3.80;1.98;;;29.40;47.20;;;;;;5076423;28;20486;-55
2022/08/12 14:48:45;;;;;;;2.03;1.63;;;29.50;82.50;;;;;;5094233;28;20500;-55
2022/08/12 14:51:11;;;;;;;2.95;1.70;;;;;;;;;;5094530;28;20050;-51
2022/08/12 14:53:37;;;;;;;3.42;1.92;;;;;;;;;;5094537;28;20020;-53
2022/08/12 14:56:03;;;;;;;2.60;1.73;;;28.50;81.80;;;;;;5093960;28;20071;-53
2022/08/12 14:58:29;;;;;;;3.88;1.88;;;27.90;83.00;;;;;;5094213;28;20028;-51
2022/08/12 15:03:39;;;;;;;2.45;1.88;;;;;;;;;;5094521;28;20398;-52
2022/08/12 15:06:07;;;;;;;5.35;2.15;;;27.60;46.70;;;;;;5094053;28;20024;-51
2022/08/12 15:08:37;;;;;;;3.40;2.20;;;27.80;58.90;;;;;;5093957;28;20028;-52
2022/08/12 15:11:06;;;;;;;8.70;2.13;;;27.20;81.50;;;;;;5093960;28;20039;-54
2022/08/12 15:13:33;;;;;;;3.13;1.75;;;27.60;82.30;;;;;;5093784;28;20020;-51